createdAt,value
2018-03-26T00:01:37.698Z,85.17
2018-03-26T00:04:05.194Z,84.53
2018-03-26T00:06:32.727Z,81.73
2018-03-26T00:09:00.273Z,86.97
2018-03-26T00:11:27.782Z,84.90
2018-03-26T00:13:55.295Z,83.67
2018-03-26T00:16:22.929Z,82.40
2018-03-26T00:18:51.201Z,81.10
2018-03-26T00:21:19.482Z,79.50
2018-03-26T00:23:47.773Z,78.50
2018-03-26T00:26:16.059Z,79.03
2018-03-26T00:28:43.697Z,78.73
2018-03-26T00:31:11.236Z,78.20
2018-03-26T00:33:38.745Z,75.17
2018-03-26T00:36:07.015Z,75.13
2018-03-26T00:38:35.406Z,73.73
2018-03-26T00:41:03.671Z,75.80
2018-03-26T00:43:31.181Z,73.70
2018-03-26T00:45:58.723Z,70.57
2018-03-26T00:48:26.249Z,71.37
2018-03-26T00:50:53.769Z,68.87
2018-03-26T00:53:33.027Z,69.90
2018-03-26T00:56:00.543Z,68.63
2018-03-26T00:58:28.106Z,68.47
2018-03-26T01:00:55.607Z,67.00
2018-03-26T01:03:23.115Z,72.53
2018-03-26T01:05:51.384Z,71.27
2018-03-26T01:08:18.932Z,73.10
2018-03-26T01:10:46.455Z,77.13
2018-03-26T01:13:13.961Z,78.50
2018-03-26T01:15:41.496Z,85.23
2018-03-26T01:18:09.000Z,86.23
2018-03-26T01:20:36.521Z,83.63
2018-03-26T01:23:04.166Z,81.57
2018-03-26T01:25:31.676Z,76.27
2018-03-26T01:27:59.198Z,80.07
2018-03-26T01:30:26.745Z,77.67
2018-03-26T01:32:54.259Z,77.47
2018-03-26T01:35:21.764Z,73.47
2018-03-26T01:37:50.056Z,70.97
2018-03-26T01:40:17.568Z,73.63
2018-03-26T01:42:45.081Z,71.73
2018-03-26T01:45:12.629Z,70.83
2018-03-26T01:47:40.905Z,68.20
2018-03-26T01:50:09.181Z,69.13
2018-03-26T01:52:37.481Z,66.23
2018-03-26T01:55:05.004Z,65.33
2018-03-26T01:57:32.528Z,66.73
2018-03-26T02:00:00.073Z,66.27
2018-03-26T02:02:27.599Z,66.47
2018-03-26T02:04:55.105Z,67.60
2018-03-26T02:07:22.728Z,67.07
2018-03-26T02:09:50.241Z,65.23
2018-03-26T02:12:17.751Z,66.23
2018-03-26T02:14:45.296Z,65.70
2018-03-26T02:17:12.809Z,63.50
2018-03-26T02:19:41.082Z,61.70
2018-03-26T02:22:09.387Z,60.83
2018-03-26T02:24:36.897Z,61.13
2018-03-26T02:27:04.400Z,61.97
2018-03-26T02:29:32.696Z,61.90
2018-03-26T02:32:00.213Z,64.13
2018-03-26T02:34:27.735Z,62.17
2018-03-26T02:36:55.365Z,61.93
2018-03-26T02:39:23.637Z,62.90
2018-03-26T02:41:51.945Z,63.50
2018-03-26T02:44:19.467Z,60.20
2018-03-26T02:46:46.989Z,59.67
2018-03-26T02:49:14.538Z,60.00
2018-03-26T02:51:42.051Z,57.40
2018-03-26T02:54:09.578Z,58.63
2018-03-26T02:56:37.131Z,56.87
2018-03-26T02:59:04.643Z,57.23
2018-03-26T03:01:32.222Z,57.50
2018-03-26T03:04:00.537Z,55.73
2018-03-26T03:06:28.073Z,54.57
2018-03-26T03:08:56.356Z,55.93
2018-03-26T03:11:24.658Z,57.87
2018-03-26T03:13:52.177Z,56.33
2018-03-26T03:16:19.702Z,54.47
2018-03-26T03:18:47.232Z,58.27
2018-03-26T03:21:15.508Z,54.33
2018-03-26T03:23:43.814Z,51.67
2018-03-26T03:26:11.329Z,53.30
2018-03-26T03:28:38.859Z,51.80
2018-03-26T03:31:06.498Z,52.40
2018-03-26T03:33:34.025Z,51.93
2018-03-26T03:36:01.531Z,52.90
2018-03-26T03:38:29.165Z,52.97
2018-03-26T03:40:57.436Z,53.53
2018-03-26T03:43:24.955Z,53.80
2018-03-26T03:45:52.581Z,53.97
2018-03-26T03:48:20.865Z,53.63
2018-03-26T03:50:49.144Z,51.77
2018-03-26T03:53:17.446Z,52.67
2018-03-26T03:55:44.965Z,53.90
2018-03-26T03:58:12.470Z,53.13
2018-03-26T04:00:40.156Z,53.57
2018-03-26T04:03:07.650Z,53.67
2018-03-26T04:05:35.164Z,51.20
2018-03-26T04:08:02.701Z,53.17
2018-03-26T04:10:30.970Z,52.47
2018-03-26T04:12:58.484Z,52.97
2018-03-26T04:15:26.021Z,50.67
2018-03-26T04:17:54.314Z,51.90
2018-03-26T04:20:21.828Z,50.87
2018-03-26T04:22:49.357Z,52.20
2018-03-26T04:25:16.887Z,52.97
2018-03-26T04:27:45.178Z,52.20
2018-03-26T04:30:12.723Z,51.87
2018-03-26T04:32:41.011Z,52.30
2018-03-26T04:35:09.281Z,53.37
2018-03-26T04:37:37.677Z,52.90
2018-03-26T04:40:05.953Z,51.83
2018-03-26T04:42:34.241Z,51.47
2018-03-26T04:45:02.561Z,50.33
2018-03-26T04:47:30.080Z,51.80
2018-03-26T04:49:58.363Z,50.40
2018-03-26T04:52:26.008Z,53.37
2018-03-26T04:54:53.570Z,54.27
2018-03-26T04:57:21.111Z,54.20
2018-03-26T04:59:48.650Z,54.40
2018-03-26T05:02:16.293Z,53.63
2018-03-26T05:04:43.788Z,56.60
2018-03-26T05:07:11.341Z,57.07
2018-03-26T05:09:38.885Z,58.23
2018-03-26T05:12:06.397Z,57.57
2018-03-26T05:14:33.935Z,57.63
2018-03-26T05:17:01.449Z,62.23
2018-03-26T05:19:28.961Z,65.10
2018-03-26T05:21:56.488Z,69.03
2018-03-26T05:24:24.770Z,72.73
2018-03-26T05:26:53.070Z,70.90
2018-03-26T05:29:20.617Z,72.97
2018-03-26T05:31:48.238Z,67.77
2018-03-26T05:34:15.869Z,64.70
2018-03-26T05:36:43.375Z,63.70
2018-03-26T05:39:11.036Z,62.97
2018-03-26T05:41:38.675Z,65.33
2018-03-26T05:44:06.185Z,64.90
2018-03-26T05:46:33.702Z,66.33
2018-03-26T05:49:01.248Z,68.47
2018-03-26T05:51:28.757Z,76.93
2018-03-26T05:53:56.305Z,78.67
2018-03-26T05:56:23.857Z,82.57
2018-03-26T05:58:51.403Z,88.23
2018-03-26T06:01:18.925Z,90.03
2018-03-26T06:03:46.469Z,97.97
2018-03-26T06:06:14.759Z,100.40
2018-03-26T06:08:42.295Z,91.37
2018-03-26T06:11:09.837Z,80.93
2018-03-26T06:13:37.344Z,67.30
2018-03-26T06:16:04.869Z,64.07
2018-03-26T06:18:32.429Z,56.03
2018-03-26T06:20:59.944Z,53.40
2018-03-26T06:23:27.467Z,52.77
2018-03-26T06:25:55.020Z,53.50
2018-03-26T06:28:22.529Z,49.93
2018-03-26T06:30:50.032Z,48.20
2018-03-26T06:33:17.607Z,51.47
2018-03-26T06:35:45.117Z,51.57
2018-03-26T06:38:18.578Z,50.57
2018-03-26T06:40:46.090Z,52.17
2018-03-26T06:43:13.622Z,50.47
2018-03-26T06:45:41.216Z,53.07
2018-03-26T06:48:08.729Z,50.53
2018-03-26T06:50:36.225Z,50.27
2018-03-26T06:53:03.746Z,50.70
2018-03-26T06:55:31.241Z,52.47
2018-03-26T06:57:58.764Z,53.03
2018-03-26T07:00:26.290Z,54.87
2018-03-26T07:02:53.815Z,53.30
2018-03-26T07:05:21.453Z,52.00
2018-03-26T07:07:49.010Z,51.40
2018-03-26T07:10:16.544Z,47.97
2018-03-26T07:12:44.183Z,51.07
2018-03-26T07:15:11.705Z,51.17
2018-03-26T07:17:39.998Z,50.50
2018-03-26T07:20:07.544Z,48.13
2018-03-26T07:22:35.926Z,51.93
2018-03-26T07:25:04.264Z,49.37
2018-03-26T07:27:31.783Z,52.87
2018-03-26T07:29:59.307Z,51.40
2018-03-26T07:32:26.850Z,54.07
2018-03-26T07:34:54.383Z,56.33
2018-03-26T07:37:22.032Z,57.70
2018-03-26T07:39:49.564Z,56.37
2018-03-26T07:42:17.111Z,52.53
2018-03-26T07:44:44.765Z,56.40
2018-03-26T07:47:12.290Z,44.33
2018-03-26T07:49:39.818Z,44.73
2018-03-26T07:52:07.345Z,46.60
2018-03-26T07:54:34.866Z,44.93
2018-03-26T07:57:03.170Z,47.87
2018-03-26T07:59:30.677Z,47.60
2018-03-26T08:01:58.191Z,46.00
2018-03-26T08:04:25.749Z,44.97
2018-03-26T08:06:54.011Z,43.67
2018-03-26T08:09:22.294Z,42.37
2018-03-26T08:11:50.621Z,43.37
2018-03-26T08:14:18.127Z,43.27
2018-03-26T08:16:45.645Z,46.47
2018-03-26T08:19:13.302Z,46.13
2018-03-26T08:21:40.815Z,45.67
2018-03-26T08:24:08.330Z,47.57
2018-03-26T08:26:35.889Z,50.60
2018-03-26T08:29:03.392Z,52.77
2018-03-26T08:31:30.901Z,55.10
2018-03-26T08:33:59.216Z,56.97
2018-03-26T08:36:26.733Z,51.10
2018-03-26T08:38:54.261Z,52.70
2018-03-26T08:41:21.808Z,46.83
2018-03-26T08:43:49.368Z,43.87
2018-03-26T08:46:18.362Z,48.33
2018-03-26T08:48:45.924Z,46.07
2018-03-26T08:51:13.455Z,48.60
2018-03-26T08:53:40.992Z,46.23
2018-03-26T08:56:08.599Z,48.77
2018-03-26T08:58:36.126Z,53.20
2018-03-26T09:01:04.448Z,53.07
2018-03-26T09:03:32.143Z,48.57
2018-03-26T09:05:59.696Z,50.20
2018-03-26T09:08:27.219Z,49.27
2018-03-26T09:10:55.627Z,46.87
2018-03-26T09:13:23.140Z,49.20
2018-03-26T09:15:50.658Z,41.87
2018-03-26T09:18:18.191Z,42.63
2018-03-26T09:20:46.500Z,36.80
2018-03-26T09:23:14.040Z,33.60
2018-03-26T09:25:42.350Z,34.03
2018-03-26T09:28:09.860Z,36.40
2018-03-26T09:30:37.365Z,37.50
2018-03-26T09:33:04.903Z,33.30
2018-03-26T09:35:33.203Z,30.77
2018-03-26T09:38:00.727Z,33.20
2018-03-26T09:40:28.306Z,27.67
2018-03-26T09:42:55.800Z,30.03
2018-03-26T09:45:23.318Z,30.43
2018-03-26T09:47:50.993Z,33.03
2018-03-26T09:50:18.494Z,36.80
2018-03-26T09:52:45.996Z,33.87
2018-03-26T09:55:13.632Z,34.63
2018-03-26T09:57:41.160Z,36.60
2018-03-26T10:00:09.449Z,34.73
2018-03-26T10:02:37.845Z,32.10
2018-03-26T10:05:05.405Z,32.97
2018-03-26T10:07:32.918Z,32.77
2018-03-26T10:10:00.527Z,39.47
2018-03-26T10:12:28.028Z,33.10
2018-03-26T10:14:55.525Z,36.77
2018-03-26T10:17:23.152Z,36.93
2018-03-26T10:19:50.658Z,35.43
2018-03-26T10:22:18.176Z,36.63
2018-03-26T10:24:45.720Z,35.50
2018-03-26T10:27:14.886Z,34.47
2018-03-26T10:29:43.192Z,34.03
2018-03-26T10:32:10.728Z,36.70
2018-03-26T10:34:38.244Z,36.30
2018-03-26T10:37:05.786Z,36.80
2018-03-26T10:39:33.294Z,36.37
2018-03-26T10:42:01.637Z,35.50
2018-03-26T10:44:29.268Z,31.73
2018-03-26T10:46:57.550Z,28.83
2018-03-26T10:49:25.854Z,26.13
2018-03-26T10:51:53.395Z,27.60
2018-03-26T10:54:21.682Z,29.53
2018-03-26T10:56:49.978Z,27.57
2018-03-26T10:59:17.557Z,30.27
2018-03-26T11:01:45.057Z,29.50
2018-03-26T11:04:12.774Z,26.10
2018-03-26T11:06:40.282Z,25.17
2018-03-26T11:09:08.046Z,24.50
2018-03-26T11:11:35.708Z,24.07
2018-03-26T11:14:03.212Z,23.03
2018-03-26T11:16:31.489Z,21.93
2018-03-26T11:18:59.120Z,23.40
2018-03-26T11:21:26.624Z,22.37
2018-03-26T11:23:54.902Z,23.00
2018-03-26T11:26:23.317Z,22.67
2018-03-26T11:28:50.817Z,23.43
2018-03-26T11:31:18.324Z,24.43
2018-03-26T11:33:46.619Z,25.03
2018-03-26T11:36:14.151Z,25.77
2018-03-26T11:38:41.685Z,25.63
2018-03-26T11:41:09.228Z,25.37
2018-03-26T11:43:36.751Z,26.80
2018-03-26T11:46:05.016Z,28.53
2018-03-26T11:48:32.684Z,29.37
2018-03-26T11:51:02.969Z,30.40
2018-03-26T11:53:30.702Z,29.27
2018-03-26T11:55:58.230Z,25.83
2018-03-26T11:58:25.742Z,26.97
2018-03-26T12:00:53.277Z,25.00
2018-03-26T12:03:26.411Z,25.73
2018-03-26T12:05:54.048Z,27.07
2018-03-26T12:08:22.343Z,25.13
2018-03-26T12:10:49.854Z,23.03
2018-03-26T12:13:17.492Z,24.30
2018-03-26T12:15:45.062Z,22.53
2018-03-26T12:18:12.578Z,23.60
2018-03-26T12:20:52.945Z,23.10
2018-03-26T12:23:32.325Z,23.47
2018-03-26T12:25:59.840Z,23.53
2018-03-26T12:28:39.131Z,24.90
2018-03-26T12:31:06.761Z,23.93
2018-03-26T12:33:34.274Z,25.30
2018-03-26T12:36:02.630Z,23.60
2018-03-26T12:38:30.151Z,24.67
2018-03-26T12:40:57.757Z,21.37
2018-03-26T12:43:25.304Z,25.20
2018-03-26T12:46:04.725Z,24.33
2018-03-26T12:48:32.258Z,24.97
2018-03-26T12:51:12.327Z,22.13
2018-03-26T12:53:39.853Z,23.83
2018-03-26T12:56:07.369Z,23.97
2018-03-26T12:58:42.556Z,23.00
2018-03-26T13:01:21.965Z,24.90
2018-03-26T13:03:49.682Z,23.77
2018-03-26T13:06:17.948Z,23.80
2018-03-26T13:08:46.245Z,24.43
2018-03-26T13:11:14.529Z,25.83
2018-03-26T13:13:42.072Z,27.07
2018-03-26T13:16:10.357Z,23.30
2018-03-26T13:18:38.685Z,25.67
2018-03-26T13:21:06.206Z,24.37
2018-03-26T13:23:34.486Z,24.63
2018-03-26T13:26:02.875Z,28.23
2018-03-26T13:28:31.194Z,25.67
2018-03-26T13:30:58.713Z,25.97
2018-03-26T13:33:27.074Z,25.00
2018-03-26T13:35:54.653Z,24.70
2018-03-26T13:38:22.948Z,25.00
2018-03-26T13:40:50.511Z,26.77
2018-03-26T13:43:18.799Z,24.43
2018-03-26T13:45:46.325Z,24.57
2018-03-26T13:48:13.899Z,22.07
2018-03-26T13:50:41.434Z,24.97
2018-03-26T13:53:08.947Z,25.03
2018-03-26T13:55:37.267Z,23.27
2018-03-26T13:58:04.807Z,23.43
2018-03-26T14:00:32.313Z,20.63
2018-03-26T14:02:59.852Z,22.90
2018-03-26T14:05:28.331Z,23.70
2018-03-26T14:07:55.852Z,23.10
2018-03-26T14:10:36.252Z,21.20
2018-03-26T14:13:15.855Z,21.83
2018-03-26T14:15:56.030Z,20.97
2018-03-26T14:18:23.684Z,18.73
2018-03-26T14:20:51.193Z,18.57
2018-03-26T14:23:18.734Z,19.10
2018-03-26T14:25:46.347Z,22.73
2018-03-26T14:28:13.882Z,21.27
2018-03-26T14:30:41.442Z,21.03
2018-03-26T14:33:09.054Z,21.07
2018-03-26T14:35:44.120Z,20.57
2018-03-26T14:38:11.690Z,20.67
2018-03-26T14:40:39.241Z,21.80
2018-03-26T14:43:06.891Z,21.63
2018-03-26T14:45:34.384Z,22.60
2018-03-26T14:48:01.932Z,23.57
2018-03-26T14:50:29.513Z,24.33
2018-03-26T14:52:57.092Z,23.17
2018-03-26T14:55:24.681Z,23.70
2018-03-26T14:57:52.420Z,23.97
2018-03-26T15:00:19.988Z,22.83
2018-03-26T15:02:47.626Z,21.67
2018-03-26T15:05:15.194Z,23.33
2018-03-26T15:07:42.759Z,22.23
2018-03-26T15:10:10.478Z,20.27
2018-03-26T15:12:38.057Z,19.73
2018-03-26T15:15:06.386Z,18.67
2018-03-26T15:17:33.929Z,19.53
2018-03-26T15:20:01.733Z,19.60
2018-03-26T15:22:29.300Z,20.70
2018-03-26T15:24:56.862Z,20.67
2018-03-26T15:27:24.507Z,20.50
2018-03-26T15:29:52.850Z,21.10
2018-03-26T15:32:21.171Z,21.27
2018-03-26T15:34:48.751Z,21.67
2018-03-26T15:37:16.376Z,20.37
2018-03-26T15:39:43.956Z,20.87
2018-03-26T15:42:11.485Z,23.00
2018-03-26T15:44:39.783Z,22.10
2018-03-26T15:47:07.329Z,24.93
2018-03-26T15:49:35.639Z,24.70
2018-03-26T15:52:03.206Z,21.73
2018-03-26T15:54:30.791Z,24.27
2018-03-26T15:56:58.537Z,18.83
2018-03-26T15:59:26.100Z,19.37
2018-03-26T16:01:53.165Z,20.33
2018-03-26T16:04:20.856Z,21.57
2018-03-26T16:06:48.397Z,20.80
2018-03-26T16:09:15.952Z,20.03
2018-03-26T16:11:43.565Z,19.93
2018-03-26T16:14:11.102Z,21.03
2018-03-26T16:16:38.624Z,19.87
2018-03-26T16:19:06.935Z,21.23
2018-03-26T16:21:34.570Z,22.97
2018-03-26T16:24:02.162Z,22.57
2018-03-26T16:26:29.738Z,23.50
2018-03-26T16:28:57.283Z,22.17
2018-03-26T16:31:24.842Z,23.53
2018-03-26T16:33:52.498Z,31.40
2018-03-26T16:36:20.068Z,44.73
2018-03-26T16:38:47.632Z,39.03
2018-03-26T16:41:27.146Z,34.30
2018-03-26T16:43:55.470Z,30.90
2018-03-26T16:46:23.039Z,32.37
2018-03-26T16:48:50.646Z,30.70
2018-03-26T16:51:18.214Z,31.63
2018-03-26T16:53:46.529Z,30.57
2018-03-26T16:56:14.129Z,31.23
2018-03-26T16:58:41.699Z,30.80
2018-03-26T17:01:09.242Z,32.20
2018-03-26T17:03:36.787Z,32.90
2018-03-26T17:06:04.380Z,30.83
2018-03-26T17:08:31.952Z,30.70
2018-03-26T17:10:59.572Z,32.37
2018-03-26T17:13:27.871Z,31.93
2018-03-26T17:15:55.496Z,32.97
2018-03-26T17:18:23.865Z,34.90
2018-03-26T17:20:51.580Z,33.00
2018-03-26T17:23:19.216Z,37.17
2018-03-26T17:25:47.599Z,37.87
2018-03-26T17:28:15.991Z,35.60
2018-03-26T17:30:43.630Z,37.57
2018-03-26T17:33:11.188Z,40.70
2018-03-26T17:35:38.815Z,44.33
2018-03-26T17:38:06.397Z,44.00
2018-03-26T17:40:33.971Z,43.13
2018-03-26T17:43:01.565Z,41.93
2018-03-26T17:45:29.924Z,45.27
2018-03-26T17:47:57.492Z,45.77
2018-03-26T17:50:25.041Z,46.30
2018-03-26T17:52:52.650Z,45.03
2018-03-26T17:55:20.982Z,43.77
2018-03-26T17:57:48.518Z,46.07
2018-03-26T18:00:16.068Z,49.80
2018-03-26T18:02:43.636Z,53.20
2018-03-26T18:05:11.306Z,52.37
2018-03-26T18:07:38.846Z,53.93
2018-03-26T18:10:07.272Z,51.60
2018-03-26T18:12:34.798Z,50.23
2018-03-26T18:15:03.133Z,50.33
2018-03-26T18:17:30.676Z,52.63
2018-03-26T18:19:58.265Z,55.67
2018-03-26T18:22:25.814Z,64.17
2018-03-26T18:24:53.421Z,67.07
2018-03-26T18:27:20.966Z,71.30
2018-03-26T18:29:48.513Z,72.20
2018-03-26T18:32:16.077Z,75.73
2018-03-26T18:34:43.702Z,71.17
2018-03-26T18:37:12.012Z,68.93
2018-03-26T18:39:39.569Z,67.30
2018-03-26T18:42:07.115Z,62.33
2018-03-26T18:44:34.670Z,61.67
2018-03-26T18:47:02.973Z,61.63
2018-03-26T18:49:30.530Z,61.07
2018-03-26T18:51:58.120Z,59.93
2018-03-26T18:54:25.668Z,60.40
2018-03-26T18:56:53.233Z,58.00
2018-03-26T18:59:20.795Z,60.40
2018-03-26T19:01:48.384Z,58.67
2018-03-26T19:04:15.933Z,58.97
2018-03-26T19:06:43.705Z,55.33
2018-03-26T19:09:11.247Z,54.00
2018-03-26T19:11:38.794Z,53.03
2018-03-26T19:14:07.109Z,54.20
2018-03-26T19:16:34.684Z,47.37
2018-03-26T19:19:02.245Z,48.83
2018-03-26T19:21:29.820Z,49.83
2018-03-26T19:23:57.382Z,51.87
2018-03-26T19:26:24.935Z,53.07
2018-03-26T19:28:52.499Z,54.10
2018-03-26T19:31:20.060Z,53.70
2018-03-26T19:33:47.614Z,55.63
2018-03-26T19:36:15.195Z,55.20
2018-03-26T19:38:42.754Z,54.37
2018-03-26T19:41:10.314Z,53.37
2018-03-26T19:43:37.899Z,59.60
2018-03-26T19:46:05.460Z,63.60
2018-03-26T19:48:33.059Z,65.07
2018-03-26T19:51:00.636Z,66.57
2018-03-26T19:53:29.006Z,67.60
2018-03-26T19:55:56.622Z,69.10
2018-03-26T19:58:24.298Z,68.60
2018-03-26T20:00:51.861Z,67.17
2018-03-26T20:03:19.475Z,68.67
2018-03-26T20:05:47.820Z,66.27
2018-03-26T20:08:15.434Z,70.83
2018-03-26T20:10:43.795Z,71.57
2018-03-26T20:13:11.414Z,73.17
2018-03-26T20:15:38.964Z,71.80
2018-03-26T20:18:06.518Z,77.50
2018-03-26T20:20:34.074Z,75.80
2018-03-26T20:23:01.647Z,81.23
2018-03-26T20:25:29.213Z,80.60
2018-03-26T20:27:56.795Z,75.33
2018-03-26T20:30:24.329Z,75.13
2018-03-26T20:32:52.831Z,74.47
2018-03-26T20:35:20.403Z,74.07
2018-03-26T20:37:48.072Z,74.07
2018-03-26T20:40:15.685Z,76.10
2018-03-26T20:42:43.273Z,75.30
2018-03-26T20:45:10.840Z,72.97
2018-03-26T20:47:38.421Z,72.23
2018-03-26T20:50:06.043Z,75.00
2018-03-26T20:52:33.613Z,76.77
2018-03-26T20:55:01.959Z,78.27
2018-03-26T20:57:29.525Z,77.83
2018-03-26T20:59:57.109Z,81.57
2018-03-26T21:02:24.700Z,80.43
2018-03-26T21:04:53.100Z,78.10
2018-03-26T21:07:20.820Z,81.40
2018-03-26T21:09:48.387Z,84.20
2018-03-26T21:12:15.964Z,83.23
2018-03-26T21:14:43.535Z,82.83
2018-03-26T21:17:11.938Z,82.00
2018-03-26T21:19:39.622Z,83.03
2018-03-26T21:22:07.178Z,82.57
2018-03-26T21:24:34.915Z,80.27
2018-03-26T21:27:02.473Z,84.93
2018-03-26T21:29:30.023Z,84.10
2018-03-26T21:31:57.559Z,87.40
2018-03-26T21:34:25.168Z,88.23
2018-03-26T21:36:52.738Z,96.73
2018-03-26T21:39:20.320Z,97.67
2018-03-26T21:41:48.666Z,100.77
2018-03-26T21:44:16.230Z,98.33
2018-03-26T21:46:43.761Z,97.13
2018-03-26T21:49:11.295Z,87.30
2018-03-26T21:51:38.833Z,85.27
2018-03-26T21:54:06.402Z,86.73
2018-03-26T21:56:34.712Z,88.37
2018-03-26T21:59:02.282Z,82.50
2018-03-26T22:01:29.825Z,86.57
2018-03-26T22:03:58.178Z,87.97
2018-03-26T22:06:25.712Z,90.10
2018-03-26T22:08:53.258Z,89.33
2018-03-26T22:11:20.793Z,89.63
2018-03-26T22:13:49.114Z,87.67
2018-03-26T22:16:16.662Z,89.47
2018-03-26T22:18:44.192Z,85.80
2018-03-26T22:21:12.474Z,85.53
2018-03-26T22:23:40.791Z,86.83
2018-03-26T22:26:08.346Z,86.93
2018-03-26T22:28:35.849Z,84.10
2018-03-26T22:31:04.144Z,84.17
2018-03-26T22:33:31.648Z,82.67
2018-03-26T22:35:59.192Z,81.67
2018-03-26T22:38:27.505Z,81.87
2018-03-26T22:40:55.052Z,82.33
2018-03-26T22:43:22.598Z,84.13
2018-03-26T22:45:50.909Z,83.77
2018-03-26T22:48:18.458Z,82.47
2018-03-26T22:50:46.745Z,83.30
2018-03-26T22:53:14.288Z,79.43
2018-03-26T22:55:42.672Z,82.73
2018-03-26T22:58:10.977Z,84.40
2018-03-26T23:00:38.542Z,86.63
2018-03-26T23:03:06.085Z,91.87
2018-03-26T23:05:34.382Z,91.07
2018-03-26T23:08:01.912Z,86.30
2018-03-26T23:10:29.665Z,89.80
2018-03-26T23:12:57.211Z,83.00
2018-03-26T23:15:24.754Z,85.53
2018-03-26T23:17:52.290Z,81.87
2018-03-26T23:20:20.646Z,87.10
2018-03-26T23:22:48.141Z,86.23
2018-03-26T23:25:15.697Z,89.53
2018-03-26T23:27:44.012Z,85.20
2018-03-26T23:30:11.565Z,85.73
2018-03-26T23:32:39.092Z,87.90
2018-03-26T23:35:06.732Z,85.60
2018-03-26T23:37:34.273Z,88.00
2018-03-26T23:40:01.778Z,85.10
2018-03-26T23:42:29.305Z,90.10
2018-03-26T23:44:56.813Z,90.60
2018-03-26T23:47:25.108Z,86.10
2018-03-26T23:49:53.407Z,87.93
2018-03-26T23:52:20.921Z,88.33
2018-03-26T23:54:48.425Z,91.63
2018-03-26T23:57:15.967Z,89.57
2018-03-26T23:59:44.300Z,90.47
